createdAt,value
2022-08-22T00:01:16.890Z,8.63
2022-08-22T00:02:54.637Z,6.50
2022-08-22T00:03:56.459Z,8.10
2022-08-22T00:06:32.161Z,7.93
2022-08-22T00:09:23.198Z,7.60
2022-08-22T00:11:59.284Z,8.27
2022-08-22T00:14:38.257Z,8.20
2022-08-22T00:17:23.486Z,9.40
2022-08-22T00:19:56.987Z,9.70
2022-08-22T00:22:32.959Z,9.03
2022-08-22T00:25:28.169Z,9.77
2022-08-22T00:28:00.354Z,10.80
2022-08-22T00:30:30.367Z,11.10
2022-08-22T00:33:03.619Z,11.20
2022-08-22T00:35:41.718Z,11.10
2022-08-22T00:38:18.422Z,11.20
2022-08-22T00:40:58.329Z,11.23
2022-08-22T00:44:01.937Z,11.07
2022-08-22T00:47:02.405Z,11.80
2022-08-22T00:50:02.552Z,11.93
2022-08-22T00:52:48.728Z,12.73
2022-08-22T00:55:39.841Z,12.53
2022-08-22T00:58:27.708Z,12.53
2022-08-22T01:01:00.883Z,13.40
2022-08-22T01:03:54.747Z,11.97
2022-08-22T01:06:29.693Z,12.53
2022-08-22T01:09:05.818Z,13.67
2022-08-22T01:12:06.531Z,13.10
2022-08-22T01:14:44.177Z,13.23
2022-08-22T01:17:56.686Z,12.97
2022-08-22T01:21:09.409Z,13.10
2022-08-22T01:24:14.564Z,12.80
2022-08-22T01:27:27.349Z,12.77
2022-08-22T01:30:19.338Z,12.40
2022-08-22T01:33:33.217Z,12.77
2022-08-22T01:36:48.875Z,12.77
2022-08-22T01:39:46.522Z,11.67
2022-08-22T01:42:59.092Z,12.47
2022-08-22T01:45:58.453Z,12.07
2022-08-22T01:48:36.953Z,11.80
2022-08-22T01:51:14.812Z,12.17
2022-08-22T01:53:49.408Z,12.57
2022-08-22T01:56:22.709Z,12.30
2022-08-22T01:58:57.239Z,11.73
2022-08-22T02:01:41.317Z,11.80
2022-08-22T02:04:17.292Z,12.40
2022-08-22T02:07:01.866Z,12.13
2022-08-22T02:09:39.765Z,12.57
2022-08-22T02:12:28.004Z,11.90
2022-08-22T02:15:07.029Z,12.87
2022-08-22T02:17:49.196Z,12.97
2022-08-22T02:20:24.733Z,13.20
2022-08-22T02:22:58.528Z,14.67
2022-08-22T02:25:30.296Z,18.50
2022-08-22T02:28:08.158Z,14.73
2022-08-22T02:30:48.836Z,13.63
2022-08-22T02:33:26.940Z,14.70
2022-08-22T02:36:00.941Z,14.93
2022-08-22T02:38:34.803Z,15.50
2022-08-22T02:41:11.996Z,15.43
2022-08-22T02:43:49.677Z,16.23
2022-08-22T02:46:28.397Z,15.30
2022-08-22T02:49:07.578Z,16.20
2022-08-22T02:51:45.452Z,15.90
2022-08-22T02:54:23.579Z,15.83
2022-08-22T02:56:58.791Z,16.17
2022-08-22T02:59:36.674Z,15.90
2022-08-22T03:02:29.719Z,15.93
2022-08-22T03:05:02.100Z,16.07
2022-08-22T03:07:41.054Z,16.93
2022-08-22T03:10:21.326Z,16.50
2022-08-22T03:12:59.230Z,15.13
2022-08-22T03:15:35.372Z,17.07
2022-08-22T03:18:15.390Z,16.57
2022-08-22T03:20:48.369Z,16.23
2022-08-22T03:23:29.276Z,16.60
2022-08-22T03:26:07.393Z,16.20
2022-08-22T03:28:59.227Z,17.03
2022-08-22T03:31:31.558Z,16.67
2022-08-22T03:34:22.394Z,16.10
2022-08-22T03:37:03.963Z,16.23
2022-08-22T03:39:49.839Z,15.43
2022-08-22T03:42:48.410Z,15.93
2022-08-22T03:45:41.987Z,16.67
2022-08-22T03:48:51.202Z,15.93
2022-08-22T03:51:42.156Z,16.33
2022-08-22T03:54:55.966Z,16.10
2022-08-22T03:58:00.448Z,15.83
2022-08-22T04:00:52.428Z,16.00
2022-08-22T04:04:09.868Z,17.87
2022-08-22T04:07:03.016Z,16.40
2022-08-22T04:10:11.985Z,16.37
2022-08-22T04:13:11.210Z,15.73
2022-08-22T04:16:05.110Z,16.07
2022-08-22T04:19:17.438Z,16.73
2022-08-22T04:22:13.387Z,16.43
2022-08-22T04:24:53.916Z,16.13
2022-08-22T04:27:28.999Z,16.07
2022-08-22T04:30:02.040Z,14.90
2022-08-22T04:32:36.535Z,15.00
2022-08-22T04:35:09.249Z,14.63
2022-08-22T04:37:48.564Z,15.60
2022-08-22T04:40:21.876Z,15.23
2022-08-22T04:42:54.268Z,15.80
2022-08-22T04:45:30.816Z,15.37
2022-08-22T04:48:07.158Z,15.35
2022-08-22T04:50:43.119Z,14.60
2022-08-22T04:53:30.037Z,14.70
2022-08-22T04:56:08.874Z,14.43
2022-08-22T04:58:47.822Z,13.88
2022-08-22T05:01:19.230Z,14.85
2022-08-22T05:03:54.052Z,14.55
2022-08-22T05:06:26.656Z,16.27
2022-08-22T05:09:00.836Z,13.40
2022-08-22T05:11:30.780Z,14.32
2022-08-22T05:14:04.127Z,14.15
2022-08-22T05:16:43.514Z,14.10
2022-08-22T05:19:22.972Z,13.73
2022-08-22T05:21:56.616Z,15.02
2022-08-22T05:24:32.094Z,15.50
2022-08-22T05:27:06.204Z,17.40
2022-08-22T05:29:34.635Z,15.77
2022-08-22T05:32:06.680Z,16.75
2022-08-22T05:34:39.348Z,17.15
2022-08-22T05:37:12.829Z,16.52
2022-08-22T05:39:47.172Z,17.85
2022-08-22T05:42:28.731Z,17.20
2022-08-22T05:44:57.291Z,17.35
2022-08-22T05:47:28.856Z,16.42
2022-08-22T05:50:02.821Z,16.20
2022-08-22T05:52:43.901Z,16.02
2022-08-22T05:55:29.563Z,14.80
2022-08-22T05:58:20.708Z,15.20
2022-08-22T06:00:54.126Z,13.32
2022-08-22T06:03:32.353Z,12.98
2022-08-22T06:06:08.051Z,12.57
2022-08-22T06:08:40.040Z,12.20
2022-08-22T06:11:17.960Z,12.00
2022-08-22T06:13:56.084Z,12.52
2022-08-22T06:16:33.225Z,11.80
2022-08-22T06:19:01.705Z,11.23
2022-08-22T06:21:39.157Z,12.13
2022-08-22T06:24:10.391Z,13.93
2022-08-22T06:26:48.219Z,12.15
2022-08-22T06:29:29.628Z,10.43
2022-08-22T06:31:58.915Z,9.25
2022-08-22T06:34:30.168Z,9.13
2022-08-22T06:37:03.817Z,9.25
2022-08-22T06:39:34.880Z,8.23
2022-08-22T06:42:11.157Z,9.23
2022-08-22T06:44:46.333Z,10.82
2022-08-22T06:47:19.130Z,9.15
2022-08-22T06:49:47.633Z,10.20
2022-08-22T06:52:23.358Z,10.05
2022-08-22T06:54:59.178Z,9.43
2022-08-22T06:57:33.729Z,8.65
2022-08-22T07:00:05.212Z,9.93
2022-08-22T07:02:37.850Z,10.52
2022-08-22T07:05:07.902Z,10.10
2022-08-22T07:07:37.381Z,9.98
2022-08-22T07:10:06.545Z,10.30
2022-08-22T07:12:39.113Z,10.30
2022-08-22T07:15:13.611Z,9.95
2022-08-22T07:17:50.696Z,10.80
2022-08-22T07:20:25.535Z,10.32
2022-08-22T07:22:56.310Z,10.20
2022-08-22T07:25:25.492Z,9.07
2022-08-22T07:28:07.505Z,9.48
2022-08-22T07:30:54.017Z,10.05
2022-08-22T07:33:40.208Z,10.88
2022-08-22T07:36:23.195Z,10.25
2022-08-22T07:39:21.545Z,9.43
2022-08-22T07:42:02.348Z,10.38
2022-08-22T07:44:39.546Z,9.40
2022-08-22T07:47:11.940Z,9.43
2022-08-22T07:49:50.613Z,11.02
2022-08-22T07:52:20.264Z,9.75
2022-08-22T07:54:52.769Z,9.60
2022-08-22T07:57:25.703Z,11.57
2022-08-22T07:59:57.544Z,9.88
2022-08-22T08:02:26.558Z,10.10
2022-08-22T08:04:57.759Z,9.95
2022-08-22T08:07:29.198Z,10.13
2022-08-22T08:10:03.060Z,10.73
2022-08-22T08:12:33.988Z,10.82
2022-08-22T08:15:07.213Z,10.70
2022-08-22T08:17:38.007Z,10.13
2022-08-22T08:20:11.247Z,10.13
2022-08-22T08:22:41.400Z,10.60
2022-08-22T08:25:10.141Z,9.75
2022-08-22T08:27:58.428Z,10.13
2022-08-22T08:30:44.164Z,10.70
2022-08-22T08:33:25.156Z,10.25
2022-08-22T08:36:02.881Z,10.30
2022-08-22T08:38:37.039Z,10.35
2022-08-22T08:41:37.553Z,10.52
2022-08-22T08:44:17.081Z,11.25
2022-08-22T08:47:16.225Z,10.25
2022-08-22T08:50:01.071Z,11.38
2022-08-22T08:52:58.482Z,11.35
2022-08-22T08:55:44.123Z,10.23
2022-08-22T08:58:33.758Z,11.57
2022-08-22T09:01:19.532Z,10.57
2022-08-22T09:04:32.617Z,11.38
2022-08-22T09:07:33.193Z,10.98
2022-08-22T09:10:19.894Z,10.32
2022-08-22T09:13:13.098Z,9.85
2022-08-22T09:16:04.870Z,11.00
2022-08-22T09:19:02.996Z,10.30
2022-08-22T09:22:18.267Z,11.38
2022-08-22T09:25:16.788Z,10.95
2022-08-22T09:27:50.262Z,11.15
2022-08-22T09:30:27.642Z,10.55
2022-08-22T09:33:03.534Z,10.23
2022-08-22T09:35:42.446Z,9.45
2022-08-22T09:38:39.557Z,10.48
2022-08-22T09:41:29.710Z,11.10
2022-08-22T09:44:23.640Z,9.93
2022-08-22T09:47:04.563Z,10.07
2022-08-22T09:49:49.750Z,10.60
2022-08-22T09:52:46.143Z,10.75
2022-08-22T09:55:35.683Z,10.43
2022-08-22T09:58:14.698Z,10.80
2022-08-22T10:00:53.768Z,11.13
2022-08-22T10:03:35.217Z,10.13
2022-08-22T10:06:14.424Z,10.30
2022-08-22T10:08:49.474Z,9.82
2022-08-22T10:11:26.860Z,9.98
2022-08-22T10:14:03.423Z,10.10
2022-08-22T10:16:44.569Z,10.95
2022-08-22T10:19:19.679Z,10.32
2022-08-22T10:22:17.061Z,10.43
2022-08-22T10:24:51.598Z,9.63
2022-08-22T10:27:33.729Z,9.75
2022-08-22T10:30:13.172Z,11.40
2022-08-22T10:32:45.821Z,9.55
2022-08-22T10:35:27.671Z,10.90
2022-08-22T10:38:00.696Z,10.13
2022-08-22T10:40:33.448Z,9.50
2022-08-22T10:43:12.285Z,9.50
2022-08-22T10:45:44.734Z,10.15
2022-08-22T10:48:28.408Z,12.13
2022-08-22T10:51:04.389Z,11.52
2022-08-22T10:53:53.150Z,10.00
2022-08-22T10:56:28.568Z,11.18
2022-08-22T10:59:04.502Z,10.65
2022-08-22T11:01:41.577Z,10.95
2022-08-22T11:04:18.341Z,14.00
2022-08-22T11:06:52.206Z,14.27
2022-08-22T11:09:30.280Z,10.32
2022-08-22T11:12:07.856Z,10.20
2022-08-22T11:15:08.739Z,9.38
2022-08-22T11:18:25.226Z,10.13
2022-08-22T11:21:01.895Z,10.13
2022-08-22T11:23:41.800Z,10.40
2022-08-22T11:26:33.717Z,9.77
2022-08-22T11:29:36.304Z,9.50
2022-08-22T11:32:16.967Z,10.75
2022-08-22T11:34:57.139Z,9.68
2022-08-22T11:37:44.895Z,10.18
2022-08-22T11:40:34.366Z,10.45
2022-08-22T11:43:17.989Z,11.18
2022-08-22T11:45:52.378Z,9.43
2022-08-22T11:48:26.880Z,10.50
2022-08-22T11:51:13.214Z,9.07
2022-08-22T11:53:47.821Z,9.38
2022-08-22T11:56:25.223Z,8.52
2022-08-22T11:58:59.303Z,10.05
2022-08-22T12:01:39.546Z,10.20
2022-08-22T12:04:16.994Z,9.18
2022-08-22T12:06:59.101Z,9.48
2022-08-22T12:09:55.144Z,8.68
2022-08-22T12:12:37.179Z,9.02
2022-08-22T12:15:12.393Z,8.48
2022-08-22T12:18:19.970Z,10.30
2022-08-22T12:21:27.988Z,9.30
2022-08-22T12:24:27.723Z,8.65
2022-08-22T12:27:28.475Z,8.75
2022-08-22T12:30:06.104Z,8.32
2022-08-22T12:33:13.039Z,8.30
2022-08-22T12:35:55.972Z,8.77
2022-08-22T12:38:40.326Z,8.20
2022-08-22T12:41:49.119Z,8.93
2022-08-22T12:44:32.061Z,8.40
2022-08-22T12:47:14.831Z,8.88
2022-08-22T12:50:06.481Z,8.77
2022-08-22T12:52:57.903Z,7.75
2022-08-22T12:55:42.013Z,8.07
2022-08-22T12:58:22.226Z,7.47
2022-08-22T13:00:53.216Z,7.80
2022-08-22T13:03:26.275Z,8.18
2022-08-22T13:05:59.762Z,10.45
2022-08-22T13:08:32.235Z,11.07
2022-08-22T13:11:03.035Z,10.98
2022-08-22T13:13:38.693Z,11.70
2022-08-22T13:16:11.761Z,11.60
2022-08-22T13:18:53.726Z,10.93
2022-08-22T13:21:27.549Z,10.30
2022-08-22T13:24:04.976Z,9.65
2022-08-22T13:26:46.363Z,9.75
2022-08-22T13:29:26.121Z,8.90
2022-08-22T13:32:01.947Z,8.77
2022-08-22T13:34:39.975Z,8.68
2022-08-22T13:37:16.427Z,8.57
2022-08-22T13:39:48.937Z,9.02
2022-08-22T13:42:30.562Z,8.00
2022-08-22T13:45:04.473Z,7.10
2022-08-22T13:47:46.309Z,7.60
2022-08-22T13:50:21.009Z,9.32
2022-08-22T13:52:55.204Z,11.55
2022-08-22T13:55:29.452Z,1.95
2022-08-22T13:58:07.567Z,1.98
2022-08-22T14:01:08.828Z,2.08
2022-08-22T19:09:45.338Z,3.58
2022-08-22T19:12:41.737Z,2.67
2022-08-22T19:15:32.885Z,3.03
2022-08-22T19:18:23.874Z,2.88
2022-08-22T19:21:34.115Z,2.65
2022-08-22T19:24:02.846Z,5.50
2022-08-22T19:26:36.100Z,20.70
2022-08-22T19:29:10.738Z,20.05
2022-08-22T19:32:02.033Z,20.10
2022-08-22T19:34:46.892Z,20.77
2022-08-22T19:37:31.762Z,19.40
2022-08-22T19:40:08.142Z,20.13
2022-08-22T19:42:40.172Z,21.13
2022-08-22T19:45:21.114Z,19.70
2022-08-22T19:48:00.629Z,19.98
2022-08-22T19:50:34.369Z,20.00
2022-08-22T19:53:24.420Z,19.63
2022-08-22T19:56:08.966Z,20.40
2022-08-22T19:58:53.612Z,19.83
2022-08-22T20:01:50.179Z,19.38
2022-08-22T20:04:38.891Z,20.77
2022-08-22T20:07:17.703Z,20.35
2022-08-22T20:09:53.412Z,19.85
2022-08-22T20:12:33.319Z,19.50
2022-08-22T20:15:16.359Z,18.67
2022-08-22T20:18:11.246Z,18.63
2022-08-22T20:20:55.217Z,19.53
2022-08-22T20:23:29.206Z,19.08
2022-08-22T20:25:58.093Z,19.13
2022-08-22T20:28:35.604Z,20.05
2022-08-22T20:31:22.051Z,19.20
2022-08-22T20:33:54.817Z,17.87
2022-08-22T20:36:28.845Z,18.98
2022-08-22T20:39:01.364Z,19.07
2022-08-22T20:41:35.561Z,19.15
2022-08-22T20:44:12.295Z,18.70
2022-08-22T20:46:55.218Z,18.80
2022-08-22T20:49:28.768Z,18.48
